Time;durP1;ratioP1;P1;durP2;ratioP2;P2;SDS_P1;SDS_P2;PMS_P1;PMS_P2;Temp;Humidity;BMP_temperature;BMP_pressure;BME280_temperature;BME280_humidity;BME280_pressure;Samples;Min_cycle;Max_cycle;Signal;HPM_P1;HPM_P2
2022/06/12 00:00:08;;;;;;;2.58;1.55;;;;;;;;;;5008206;28;20540;-59
2022/06/12 00:02:34;;;;;;;1.77;1.30;;;;;;;;;;5013824;28;20083;-58
2022/06/12 00:05:00;;;;;;;2.30;1.40;;;;;;;;;;5011882;28;20080;-58
2022/06/12 00:07:26;;;;;;;2.42;1.70;;;;;;;;;;5011030;28;20065;-59
2022/06/12 00:09:52;;;;;;;2.65;1.70;;;;;;;;;;5009866;28;20072;-59
2022/06/12 00:12:18;;;;;;;3.33;1.42;;;;;;;;;;5012640;28;20022;-58
2022/06/12 00:14:45;;;;;;;2.10;1.73;;;;;;;;;;5010224;28;20026;-59
2022/06/12 00:17:11;;;;;;;3.28;1.73;;;;;;;;;;5013538;28;20141;-58
2022/06/12 00:19:37;;;;;;;2.30;1.60;;;;;;;;;;5013410;28;20034;-59
2022/06/12 00:22:03;;;;;;;2.70;1.70;;;;;;;;;;5010555;28;20026;-58
2022/06/12 00:24:29;;;;;;;2.80;1.70;;;;;;;;;;5010648;28;20034;-59
2022/06/12 00:26:56;;;;;;;2.72;1.42;;;;;;;;;;5012015;28;20041;-58
2022/06/12 00:29:27;;;;;;;2.63;1.75;;;;;;;;;;5013410;28;20068;-59
2022/06/12 00:31:55;;;;;;;4.00;1.55;;;;;;;;;;5007584;28;20383;-59
2022/06/12 00:34:22;;;;;;;2.80;1.90;;;;;;;;;;5010126;28;20057;-58
2022/06/12 00:36:48;;;;;;;2.65;1.60;;;;;;;;;;5010680;28;20076;-59
2022/06/12 00:39:15;;;;;;;2.47;1.65;;;;;;;;;;5012920;28;20038;-59
2022/06/12 00:41:41;;;;;;;2.08;1.50;;;;;;;;;;5013121;28;20029;-59
2022/06/12 00:44:08;;;;;;;1.83;1.20;;;;;;;;;;5010747;28;20033;-59
2022/06/12 00:46:35;;;;;;;2.47;1.60;;;;;;;;;;5011898;28;20042;-59
2022/06/12 00:49:02;;;;;;;1.90;1.30;;;;;;;;;;5012639;28;20487;-59
2022/06/12 00:51:29;;;;;;;2.28;1.38;;;;;;;;;;5010794;28;20034;-59
2022/06/12 00:53:56;;;;;;;1.70;1.30;;;;;;;;;;5013049;28;20026;-59
2022/06/12 00:56:24;;;;;;;2.17;1.30;;;;;;;;;;5012577;28;20022;-59
2022/06/12 00:58:52;;;;;;;1.75;1.30;;;;;;;;;;5009775;28;20058;-61
2022/06/12 01:01:21;;;;;;;2.58;1.45;;;;;;;;;;5008262;28;20026;-59
2022/06/12 01:06:35;;;;;;;3.38;1.40;;;;;;;;;;5010987;28;20072;-59
2022/06/12 01:09:13;;;;;;;2.70;1.33;;;;;;;;;;5012596;28;20487;-59
2022/06/12 01:11:40;;;;;;;2.67;1.60;;;;;;;;;;5010940;28;20037;-59
2022/06/12 01:14:08;;;;;;;2.50;1.48;;;;;;;;;;5010188;28;20514;-58
2022/06/12 01:16:36;;;;;;;3.03;1.90;;;;;;;;;;5010800;28;20463;-58
2022/06/12 01:19:02;;;;;;;3.08;1.92;;;;;;;;;;4995086;28;20442;-58
2022/06/12 01:21:55;;;;;;;2.35;1.50;;;;;;;;;;5010926;28;20091;-59
2022/06/12 01:24:40;;;;;;;3.15;1.42;;;;;;;;;;5002037;28;20058;-58
2022/06/12 01:27:22;;;;;;;1.92;1.40;;;;;;;;;;5012773;28;20026;-59
2022/06/12 01:29:48;;;;;;;2.85;1.80;;;;;;;;;;5010102;28;20041;-59
2022/06/12 01:32:17;;;;;;;2.58;1.67;;;;;;;;;;5013005;28;20022;-59
2022/06/12 01:34:51;;;;;;;1.98;1.60;;;;;;;;;;5015366;28;20352;-59
2022/06/12 01:37:17;;;;;;;3.97;2.10;;;;;;;;;;5014058;28;20022;-59
2022/06/12 01:39:43;;;;;;;2.45;1.70;;;;;;;;;;5016322;28;20495;-59
2022/06/12 01:42:12;;;;;;;3.05;1.40;;;;;;;;;;5015373;28;20018;-59
2022/06/12 01:44:38;;;;;;;1.88;1.40;;;;;;;;;;5014557;28;20100;-59
2022/06/12 01:47:14;;;;;;;3.08;1.40;;;;;;;;;;5012184;28;20042;-59
2022/06/12 01:49:43;;;;;;;4.45;1.73;;;;;;;;;;5016222;28;20022;-59
2022/06/12 01:52:24;;;;;;;2.08;1.40;;;;;;;;;;5015376;28;20026;-59
2022/06/12 01:55:13;;;;;;;3.20;1.50;;;;;;;;;;5012441;28;20022;-61
2022/06/12 01:58:02;;;;;;;3.03;1.45;;;;;;;;;;5007809;28;20034;-59
2022/06/12 02:00:29;;;;;;;2.10;1.48;;;;;;;;;;5003057;28;20038;-59
2022/06/12 02:03:11;;;;;;;3.17;1.70;;;;;;;;;;5013480;28;20037;-59
2022/06/12 02:05:45;;;;;;;2.70;1.58;;;;;;;;;;5013273;28;20026;-59
2022/06/12 02:08:15;;;;;;;3.63;1.25;;;;;;;;;;5015816;28;20034;-60
2022/06/12 02:10:44;;;;;;;1.73;1.20;;;;;;;;;;5012608;28;20080;-58
2022/06/12 02:13:13;;;;;;;2.15;1.83;;;;;;;;;;5015533;28;20080;-59
2022/06/12 02:15:48;;;;;;;2.80;2.15;;;;;;;;;;5015563;28;20528;-59
2022/06/12 02:18:19;;;;;;;2.33;1.40;;;;;;;;;;5014280;28;20018;-59
2022/06/12 02:20:47;;;;;;;4.77;1.87;;;;;;;;;;5013561;28;20061;-59
2022/06/12 02:23:25;;;;;;;3.67;1.98;;;;;;;;;;5015097;28;20092;-59
2022/06/12 02:25:54;;;;;;;2.38;1.40;;;;;;;;;;5013060;28;20033;-60
2022/06/12 02:28:23;;;;;;;2.38;1.45;;;;;;;;;;5012432;28;20525;-59
2022/06/12 02:30:52;;;;;;;2.88;1.80;;;;;;;;;;5015056;28;20091;-60
2022/06/12 02:33:26;;;;;;;3.67;1.60;;;;;;;;;;5014658;28;20053;-59
2022/06/12 02:35:58;;;;;;;16.35;1.80;;;;;;;;;;4995281;28;20417;-59
2022/06/12 02:38:35;;;;;;;6.43;1.73;;;;;;;;;;5015329;28;20034;-59
2022/06/12 02:41:27;;;;;;;8.70;2.30;;;;;;;;;;5006452;28;20030;-59
2022/06/12 02:43:56;;;;;;;3.72;1.40;;;;;;;;;;5008709;28;20041;-59
2022/06/12 02:46:31;;;;;;;9.35;1.63;;;;;;;;;;5015023;28;20124;-58
2022/06/12 02:48:57;;;;;;;2.10;1.50;;;;;;;;;;5011563;28;20518;-59
2022/06/12 02:51:28;;;;;;;2.10;1.58;;;;;;;;;;5013864;28;20026;-59
2022/06/12 02:54:13;;;;;;;3.97;1.48;;;;;;;;;;5013402;28;20048;-59
2022/06/12 02:56:41;;;;;;;3.42;1.90;;;;;;;;;;5011099;28;20022;-59
2022/06/12 02:59:10;;;;;;;3.28;1.35;;;;;;;;;;5010851;28;20021;-59
2022/06/12 03:02:00;;;;;;;2.53;1.67;;;;;;;;;;5013437;28;20112;-59
2022/06/12 03:04:40;;;;;;;3.25;1.55;;;;;;;;;;5004049;28;20049;-58
2022/06/12 03:07:06;;;;;;;1.88;1.33;;;;;;;;;;5009091;28;20030;-59
2022/06/12 03:09:33;;;;;;;4.60;2.08;;;;;;;;;;5012765;28;20026;-59
2022/06/12 03:11:59;;;;;;;5.13;1.33;;;;;;;;;;5012088;28;20032;-59
2022/06/12 03:14:25;;;;;;;2.42;1.45;;;;;;;;;;5013011;28;20018;-58
2022/06/12 03:16:52;;;;;;;3.55;1.55;;;;;;;;;;5011151;28;20024;-60
2022/06/12 03:19:23;;;;;;;6.00;1.52;;;;;;;;;;5011184;28;20048;-59
2022/06/12 03:22:08;;;;;;;1.73;1.33;;;;;;;;;;4994719;28;20486;-58
2022/06/12 03:24:34;;;;;;;3.80;1.67;;;;;;;;;;5010515;28;20383;-59
2022/06/12 03:27:09;;;;;;;2.70;1.38;;;;;;;;;;5008883;28;20069;-57
2022/06/12 03:29:38;;;;;;;2.40;1.42;;;;;;;;;;5012075;28;20026;-59
2022/06/12 03:32:19;;;;;;;2.60;1.50;;;;;;;;;;5012097;28;20485;-59
2022/06/12 03:34:51;;;;;;;1.70;1.40;;;;;;;;;;5011059;28;20435;-58
2022/06/12 03:37:26;;;;;;;2.40;1.42;;;;;;;;;;5011055;28;20433;-59
2022/06/12 03:40:18;;;;;;;4.18;1.50;;;;;;;;;;5012673;28;20037;-59
2022/06/12 03:42:55;;;;;;;2.75;1.60;;;;;;;;;;5001851;28;20050;-58
2022/06/12 03:45:28;;;;;;;2.45;1.48;;;;;;;;;;5011447;28;20017;-59
2022/06/12 03:48:06;;;;;;;1.20;1.10;;;;;;;;;;5003372;28;20014;-59
2022/06/12 03:50:55;;;;;;;2.00;1.45;;;;;;;;;;5013732;28;20506;-59
2022/06/12 03:53:26;;;;;;;1.92;1.38;;;;;;;;;;5012276;28;20136;-59
2022/06/12 03:58:56;;;;;;;2.40;1.40;;;;;;;;;;5012223;28;20036;-58
2022/06/12 04:01:23;;;;;;;3.00;1.35;;;;;;;;;;5011402;28;20132;-59
2022/06/12 04:03:49;;;;;;;2.58;1.48;;;;;;;;;;5011470;28;20029;-59
2022/06/12 04:06:20;;;;;;;2.95;1.50;;;;;;;;;;5008342;28;20072;-58
2022/06/12 04:08:56;;;;;;;3.42;1.60;;;;;;;;;;5013069;28;20053;-58
2022/06/12 04:11:23;;;;;;;2.35;1.33;;;;;;;;;;5009906;28;20114;-58
2022/06/12 04:13:49;;;;;;;4.43;1.42;;;;;;;;;;5010587;28;20031;-58
2022/06/12 04:16:15;;;;;;;4.05;1.50;;;;;;;;;;5009069;28;20030;-58
2022/06/12 04:18:42;;;;;;;2.13;1.50;;;;;;;;;;5012079;28;20056;-59
2022/06/12 04:21:11;;;;;;;3.40;1.30;;;;;;;;;;5011020;28;20120;-59
2022/06/12 04:23:43;;;;;;;2.42;1.73;;;;;;;;;;5007838;28;20080;-58
2022/06/12 04:26:15;;;;;;;3.15;1.35;;;;;;;;;;5009999;28;20663;-58
2022/06/12 04:28:43;;;;;;;1.88;1.30;;;;;;;;;;5011072;28;20038;-58
2022/06/12 04:31:15;;;;;;;1.33;0.98;;;;;;;;;;5012627;28;20033;-59
2022/06/12 04:34:00;;;;;;;2.80;1.35;;;;;;;;;;5011301;28;20376;-58
2022/06/12 04:36:27;;;;;;;2.65;1.80;;;;;;;;;;5001635;28;20511;-58
2022/06/12 04:38:55;;;;;;;1.67;1.20;;;;;;;;;;5011563;28;20030;-59
2022/06/12 04:41:23;;;;;;;1.45;1.30;;;;;;;;;;5009655;28;20026;-58
2022/06/12 04:43:49;;;;;;;2.58;1.45;;;;;;;;;;5013310;28;20096;-58
2022/06/12 04:46:15;;;;;;;1.80;1.60;;;;;;;;;;5011913;28;20050;-58
2022/06/12 04:48:44;;;;;;;2.20;1.33;;;;;;;;;;5011273;28;20064;-58
2022/06/12 04:51:11;;;;;;;3.08;1.50;;;;;;;;;;5012334;28;20057;-58
2022/06/12 04:53:37;;;;;;;2.08;1.38;;;;;;;;;;5010667;28;20022;-58
2022/06/12 04:56:04;;;;;;;1.63;1.30;;;;;;;;;;5009293;28;20507;-58
2022/06/12 04:58:30;;;;;;;3.33;1.50;;;;;;;;;;5012363;28;20033;-59
2022/06/12 05:00:56;;;;;;;2.33;1.60;;;;;;;;;;5008769;28;20758;-59
2022/06/12 05:03:22;;;;;;;2.55;1.67;;;;;;;;;;5012845;28;20084;-58
2022/06/12 05:05:48;;;;;;;1.73;1.30;;;;;;;;;;5013158;28;20034;-58
2022/06/12 05:08:15;;;;;;;2.00;1.63;;;;;;;;;;5012220;28;20378;-58
2022/06/12 05:10:41;;;;;;;1.80;1.33;;;;;;;;;;5016961;28;20100;-59
2022/06/12 05:13:08;;;;;;;1.90;1.50;;;;;;;;;;5015472;28;20030;-59
2022/06/12 05:15:34;;;;;;;1.63;1.30;;;;;;;;;;5012973;28;20014;-59
2022/06/12 05:18:00;;;;;;;2.40;1.40;;;;;;;;;;5014354;28;20033;-56
2022/06/12 05:20:28;;;;;;;2.28;1.63;;;;;;;;;;5016965;28;20022;-58
2022/06/12 05:22:55;;;;;;;3.13;1.63;;;;;;;;;;5014424;28;20475;-58
2022/06/12 05:25:21;;;;;;;2.10;1.52;;;;;;;;;;5014434;28;20025;-58
2022/06/12 05:27:48;;;;;;;2.28;1.63;;;;;;;;;;5016419;28;20068;-58
2022/06/12 05:30:18;;;;;;;1.40;1.30;;;;;;;;;;5014786;28;20026;-58
2022/06/12 05:32:44;;;;;;;2.03;1.48;;;;;;;;;;5013215;28;20029;-58
2022/06/12 05:35:10;;;;;;;2.15;1.60;;;;;;;;;;5014168;28;20030;-58
2022/06/12 05:37:38;;;;;;;2.80;1.35;;;;;;;;;;5016228;28;20073;-59
2022/06/12 05:40:05;;;;;;;2.35;1.25;;;;;;;;;;5014953;28;20056;-58
2022/06/12 05:42:31;;;;;;;1.83;1.63;;;;;;;;;;5010313;28;20034;-59
2022/06/12 05:44:57;;;;;;;2.70;1.50;;;;;;;;;;4995445;28;20033;-58
2022/06/12 05:47:23;;;;;;;3.10;1.55;;;;;;;;;;5010323;28;20391;-58
2022/06/12 05:49:49;;;;;;;3.08;1.92;;;;;;;;;;5016316;28;20360;-59
2022/06/12 05:52:16;;;;;;;4.05;1.30;;;;;;;;;;5014196;28;20426;-59
2022/06/12 05:54:42;;;;;;;2.20;1.33;;;;;;;;;;5013481;28;20030;-55
2022/06/12 05:57:08;;;;;;;3.92;1.70;;;;;;;;;;5015435;28;20105;-56
2022/06/12 05:59:34;;;;;;;1.90;1.40;;;;;;;;;;5014701;28;20026;-54
2022/06/12 06:02:00;;;;;;;2.65;1.67;;;;;;;;;;5011754;28;20040;-53
2022/06/12 06:04:27;;;;;;;5.53;1.50;;;;;;;;;;5015568;28;20030;-56
2022/06/12 06:06:54;;;;;;;1.83;1.58;;;;;;;;;;5012743;28;20045;-50
2022/06/12 06:09:22;;;;;;;4.15;2.38;;;;;;;;;;5012322;28;20030;-53
2022/06/12 06:11:48;;;;;;;7.53;1.77;;;;;;;;;;5014558;28;20045;-58
2022/06/12 06:14:14;;;;;;;4.60;1.58;;;;;;;;;;5012777;28;20046;-48
2022/06/12 06:16:41;;;;;;;3.53;1.55;;;;;;;;;;5012278;28;20032;-48
2022/06/12 06:19:08;;;;;;;3.78;1.55;;;;;;;;;;5014642;28;20038;-52
2022/06/12 06:21:34;;;;;;;2.08;1.45;;;;;;;;;;5013834;28;20034;-52
2022/06/12 06:24:00;;;;;;;3.20;1.55;;;;;;;;;;5011732;28;20021;-56
2022/06/12 06:26:27;;;;;;;2.75;1.58;;;;;;;;;;5014301;28;20108;-56
2022/06/12 06:28:55;;;;;;;2.47;1.67;;;;;;;;;;5014289;28;20470;-58
2022/06/12 06:31:21;;;;;;;2.75;1.88;;;;;;;;;;5006918;28;20030;-54
2022/06/12 06:33:47;;;;;;;2.85;1.95;;;;;;;;;;5014869;28;20037;-47
2022/06/12 06:36:15;;;;;;;15.95;1.75;;;;;;;;;;5013437;28;20045;-60
2022/06/12 06:38:41;;;;;;;2.22;1.52;;;;;;;;;;5005744;28;20027;-54
2022/06/12 06:41:07;;;;;;;2.42;1.30;;;;;;;;;;5008407;28;20042;-56
2022/06/12 06:46:13;;;;;;;1.98;1.52;;;;;;;;;;4995017;28;20072;-54
2022/06/12 06:46:20;;;;;;;2.10;1.30;;;;;;;;;;5012798;28;20128;-58
2022/06/12 06:48:46;;;;;;;2.80;1.60;;;;;;;;;;5013760;28;20414;-55
2022/06/12 06:51:12;;;;;;;2.58;1.98;;;;;;;;;;5011289;28;20029;-57
2022/06/12 06:53:38;;;;;;;3.47;1.58;;;;;;;;;;5014047;28;20109;-49
2022/06/12 06:56:05;;;;;;;2.05;1.38;;;;;;;;;;5012208;28;20153;-58
2022/06/12 06:58:32;;;;;;;3.08;1.30;;;;;;;;;;5011116;28;20117;-59
2022/06/12 07:00:58;;;;;;;3.08;1.65;;;;;;;;;;5014748;28;20034;-55
2022/06/12 07:03:24;;;;;;;2.58;1.98;;;;;;;;;;5013105;28;20485;-52
2022/06/12 07:05:51;;;;;;;4.13;1.60;;;;;;;;;;5012919;28;20022;-58
2022/06/12 07:08:18;;;;;;;2.35;1.10;;;;;;;;;;5014769;28;20029;-58
2022/06/12 07:10:44;;;;;;;2.28;1.35;;;;;;;;;;5012938;28;20529;-49
2022/06/12 07:13:10;;;;;;;1.60;1.50;;;;;;;;;;5010905;28;20108;-52
2022/06/12 07:15:36;;;;;;;2.95;1.65;;;;;;;;;;5011653;28;20450;-56
2022/06/12 07:18:04;;;;;;;2.92;1.60;;;;;;;;;;5011760;28;20414;-56
2022/06/12 07:20:31;;;;;;;3.00;1.42;;;;;;;;;;5013780;28;20033;-58
2022/06/12 07:22:57;;;;;;;4.03;1.60;;;;;;;;;;5011142;28;20026;-56
2022/06/12 07:25:24;;;;;;;2.40;1.48;;;;;;;;;;5014372;28;20037;-52
2022/06/12 07:27:50;;;;;;;2.30;1.33;;;;;;;;;;5013683;28;20109;-59
2022/06/12 07:30:19;;;;;;;1.77;1.20;;;;;;;;;;5011669;28;20054;-56
2022/06/12 07:32:46;;;;;;;2.45;1.30;;;;;;;;;;5005023;28;20029;-58
2022/06/12 07:35:12;;;;;;;2.33;1.25;;;;;;;;;;5011851;28;20034;-57
2022/06/12 07:37:39;;;;;;;3.83;1.40;;;;;;;;;;5012482;28;20419;-62
2022/06/12 07:40:06;;;;;;;2.35;1.75;;;;;;;;;;5005216;28;20105;-59
2022/06/12 07:42:33;;;;;;;2.15;1.50;;;;;;;;;;5007661;28;20037;-61
2022/06/12 07:44:59;;;;;;;2.83;1.70;;;;;;;;;;5002677;28;20376;-66
2022/06/12 07:47:25;;;;;;;1.75;1.30;;;;;;;;;;5006645;28;20372;-56
2022/06/12 07:49:52;;;;;;;2.35;1.35;;;;;;;;;;5012523;28;20026;-48
2022/06/12 07:52:18;;;;;;;7.05;1.63;;;;;;;;;;5013212;28;20025;-56
2022/06/12 07:54:44;;;;;;;3.50;1.70;;;;;;;;;;5013789;28;20426;-53
2022/06/12 07:57:10;;;;;;;2.35;1.33;;;;;;;;;;5010934;28;20089;-46
2022/06/12 07:59:37;;;;;;;6.90;1.80;;;;;;;;;;5011372;28;20036;-59
2022/06/12 08:02:04;;;;;;;6.30;1.90;;;;;;;;;;5011278;28;20069;-51
2022/06/12 08:04:30;;;;;;;3.95;1.80;;;;;;;;;;5013086;28;20026;-53
2022/06/12 08:06:56;;;;;;;2.03;1.52;;;;;;;;;;5012262;28;20048;-50
2022/06/12 08:09:22;;;;;;;2.58;1.45;;;;;;;;;;5007939;28;20080;-52
2022/06/12 08:11:49;;;;;;;3.08;1.35;;;;;;;;;;5012906;28;20026;-48
2022/06/12 08:14:17;;;;;;;2.05;1.40;;;;;;;;;;5012838;28;20429;-52
2022/06/12 08:16:43;;;;;;;2.50;1.50;;;;;;;;;;5008543;28;20108;-48
2022/06/12 08:21:54;;;;;;;4.97;1.70;;;;;;;;;;5001613;28;20089;-49
2022/06/12 08:24:20;;;;;;;4.53;1.42;;;;;;;;;;5004456;28;20030;-44
2022/06/12 08:26:46;;;;;;;3.60;1.35;;;;;;;;;;5010797;28;20087;-47
2022/06/12 08:29:13;;;;;;;2.95;1.58;;;;;;;;;;5012865;28;20113;-52
2022/06/12 08:31:42;;;;;;;3.63;1.55;;;;;;;;;;5011476;28;20034;-50
2022/06/12 08:34:11;;;;;;;3.42;1.58;;;;;;;;;;5012423;28;20053;-46
2022/06/12 08:36:37;;;;;;;1.88;1.38;;;;;;;;;;5011696;28;20026;-46
2022/06/12 08:39:05;;;;;;;2.25;1.45;;;;;;;;;;5009482;28;20636;-48
2022/06/12 08:41:38;;;;;;;2.53;1.27;;;;;;;;;;5012666;28;20034;-47
2022/06/12 08:44:16;;;;;;;4.05;1.70;;;;;;;;;;4994619;28;20443;-49
2022/06/12 08:46:53;;;;;;;5.10;1.40;;;;;;;;;;5008478;28;20042;-46
2022/06/12 08:49:27;;;;;;;2.97;1.45;;;;;;;;;;5008305;28;20034;-46
2022/06/12 08:51:59;;;;;;;1.95;1.50;;;;;;;;;;5011576;28;20530;-47
2022/06/12 08:54:30;;;;;;;3.15;1.40;;;;;;;;;;5010806;28;20479;-46
2022/06/12 08:57:02;;;;;;;2.38;1.60;;;;;;;;;;5005823;28;20033;-46
2022/06/12 08:59:35;;;;;;;2.85;1.50;;;;;;;;;;5012431;28;20033;-46
2022/06/12 09:02:04;;;;;;;3.53;1.75;;;;;;;;;;5009433;28;20530;-47
2022/06/12 09:04:30;;;;;;;9.18;1.75;;;;;;;;;;5005192;28;20101;-47
2022/06/12 09:07:06;;;;;;;5.10;1.55;;;;;;;;;;5011212;28;20411;-49
2022/06/12 09:09:45;;;;;;;4.57;1.65;;;;;;;;;;5013149;28;20041;-48
2022/06/12 09:12:11;;;;;;;2.40;1.50;;;;;;;;;;5007698;28;20047;-49
2022/06/12 09:14:37;;;;;;;3.70;1.40;;;;;;;;;;5010735;28;20506;-49
2022/06/12 09:17:22;;;;;;;2.17;1.52;;;;;;;;;;5010577;28;20033;-50
2022/06/12 09:19:53;;;;;;;4.60;1.52;;;;;;;;;;5012849;28;20030;-47
2022/06/12 09:22:19;;;;;;;3.00;1.30;;;;;;;;;;5011299;28;20022;-52
2022/06/12 09:24:59;;;;;;;4.78;1.40;;;;;;;;;;5004716;28;20426;-57
2022/06/12 09:27:40;;;;;;;4.78;1.30;;;;;;;;;;5012467;28;20494;-50
2022/06/12 09:30:10;;;;;;;6.47;1.67;;;;;;;;;;5004207;28;20030;-52
2022/06/12 09:32:45;;;;;;;5.53;1.55;;;;;;;;;;5010384;28;20117;-55
2022/06/12 09:35:20;;;;;;;4.88;1.95;;;;;;;;;;5010669;28;20042;-50
2022/06/12 09:38:21;;;;;;;6.18;1.58;;;;;;;;;;5009830;28;20038;-51
2022/06/12 09:40:59;;;;;;;4.47;1.52;;;;;;;;;;5008835;28;20511;-57
2022/06/12 09:43:25;;;;;;;8.05;1.73;;;;;;;;;;5006166;28;20022;-54
2022/06/12 09:46:04;;;;;;;2.70;1.52;;;;;;;;;;5008754;28;20374;-49
2022/06/12 09:48:59;;;;;;;3.90;1.40;;;;;;;;;;4988780;28;20030;-49
2022/06/12 09:51:28;;;;;;;4.85;1.88;;;;;;;;;;4993704;28;20042;-51
2022/06/12 09:54:14;;;;;;;2.67;1.50;;;;;;;;;;5012108;28;20103;-52
2022/06/12 09:56:44;;;;;;;3.53;1.40;;;;;;;;;;5015734;28;20475;-51
2022/06/12 09:59:13;;;;;;;4.22;1.63;;;;;;;;;;5014351;28;20029;-50
2022/06/12 10:01:42;;;;;;;6.63;1.67;;;;;;;;;;5012581;28;20034;-56
2022/06/12 10:04:16;;;;;;;3.92;1.63;;;;;;;;;;5008301;28;20023;-50
2022/06/12 10:06:58;;;;;;;5.57;2.40;;;;;;;;;;5009480;28;20045;-57
2022/06/12 10:09:35;;;;;;;1.75;1.05;;;;;;;;;;5012586;28;20058;-56
2022/06/12 10:12:01;;;;;;;2.78;1.10;;;;;;;;;;5011958;28;20456;-54
2022/06/12 10:14:31;;;;;;;3.28;1.40;;;;;;;;;;5015438;28;20029;-54
2022/06/12 10:17:00;;;;;;;2.95;1.65;;;;;;;;;;5014452;28;20026;-57
2022/06/12 10:19:31;;;;;;;2.08;1.40;;;;;;;;;;5014313;28;20041;-56
2022/06/12 10:22:00;;;;;;;3.10;1.40;;;;;;;;;;5013680;28;20080;-56
2022/06/12 10:24:26;;;;;;;5.10;1.50;;;;;;;;;;5015392;28;20026;-57
2022/06/12 10:27:04;;;;;;;3.65;1.40;;;;;;;;;;5011632;28;20026;-57
2022/06/12 10:29:41;;;;;;;10.98;1.60;;;;;;;;;;5011408;28;20029;-57
2022/06/12 10:32:11;;;;;;;3.17;1.30;;;;;;;;;;5003727;28;20371;-55
2022/06/12 10:34:37;;;;;;;2.33;1.58;;;;;;;;;;5011555;28;20037;-56
2022/06/12 10:37:17;;;;;;;5.30;1.52;;;;;;;;;;5011671;28;20026;-55
2022/06/12 10:39:43;;;;;;;2.33;1.20;;;;;;;;;;5007885;28;20077;-56
2022/06/12 10:42:30;;;;;;;3.28;1.20;;;;;;;;;;5014625;28;20455;-56
2022/06/12 10:44:57;;;;;;;2.20;1.20;;;;;;;;;;5012466;28;20030;-55
2022/06/12 10:47:27;;;;;;;3.50;1.65;;;;;;;;;;5010754;28;20208;-56
2022/06/12 10:50:02;;;;;;;3.20;1.63;;;;;;;;;;5011764;28;20026;-53
2022/06/12 10:52:28;;;;;;;1.55;1.38;;;;;;;;;;5005949;28;20026;-55
2022/06/12 10:54:54;;;;;;;4.13;1.42;;;;;;;;;;5014685;28;20048;-57
2022/06/12 10:57:39;;;;;;;3.33;1.40;;;;;;;;;;5012688;28;20037;-58
2022/06/12 11:00:12;;;;;;;2.20;1.50;;;;;;;;;;5005267;28;20108;-59
2022/06/12 11:02:57;;;;;;;4.38;1.50;;;;;;;;;;5011923;28;20033;-54
2022/06/12 11:05:35;;;;;;;2.67;1.67;;;;;;;;;;5009573;28;20057;-61
2022/06/12 11:08:20;;;;;;;3.17;1.40;;;;;;;;;;5011888;28;20041;-47
2022/06/12 11:10:49;;;;;;;4.32;1.58;;;;;;;;;;5009840;28;20448;-47
2022/06/12 11:13:34;;;;;;;5.57;1.58;;;;;;;;;;5012428;28;20414;-53
2022/06/12 11:16:00;;;;;;;1.63;1.25;;;;;;;;;;5008476;28;20030;-48
2022/06/12 11:18:49;;;;;;;2.58;1.48;;;;;;;;;;5010728;28;20033;-54
2022/06/12 11:21:27;;;;;;;2.63;1.40;;;;;;;;;;4982511;28;20417;-49
2022/06/12 11:23:53;;;;;;;2.13;1.45;;;;;;;;;;5010569;28;20030;-48
2022/06/12 11:26:38;;;;;;;2.53;1.88;;;;;;;;;;5009652;28;20037;-53
2022/06/12 11:29:14;;;;;;;3.70;2.30;;;;;;;;;;5010503;28;20026;-47
2022/06/12 11:31:40;;;;;;;5.55;2.80;;;;;;;;;;5010344;28;20120;-56
2022/06/12 11:34:22;;;;;;;3.40;2.40;;;;;;;;;;5007518;28;20109;-56
2022/06/12 11:36:48;;;;;;;2.53;2.00;;;;;;;;;;5010796;28;20029;-48
2022/06/12 11:39:27;;;;;;;2.97;1.77;;;;;;;;;;5012342;28;20030;-58
2022/06/12 11:42:16;;;;;;;2.45;1.70;;;;;;;;;;5009230;28;20034;-57
2022/06/12 11:44:58;;;;;;;6.43;2.38;;;;;;;;;;5004986;28;20022;-49
2022/06/12 11:47:42;;;;;;;7.10;2.30;;;;;;;;;;5010040;28;20048;-58
2022/06/12 11:50:20;;;;;;;6.10;2.40;;;;;;;;;;5011620;28;20065;-58
2022/06/12 11:52:46;;;;;;;8.63;2.97;;;;;;;;;;5010864;28;20026;-51
2022/06/12 11:55:15;;;;;;;6.05;2.50;;;;;;;;;;5008145;28;20088;-58
2022/06/12 11:57:48;;;;;;;5.50;3.38;;;;;;;;;;5010616;28;20018;-55
2022/06/12 12:00:19;;;;;;;8.98;2.50;;;;;;;;;;5008773;28;20038;-59
2022/06/12 12:02:50;;;;;;;17.27;4.53;;;;;;;;;;5007803;28;20034;-58
2022/06/12 12:05:36;;;;;;;21.02;6.43;;;;;;;;;;5009741;28;20100;-51
2022/06/12 12:08:04;;;;;;;17.05;4.80;;;;;;;;;;5011817;28;20033;-54
2022/06/12 12:10:38;;;;;;;17.92;5.28;;;;;;;;;;5009619;28;20026;-52
2022/06/12 12:13:07;;;;;;;19.30;5.65;;;;;;;;;;5009730;28;20106;-60
2022/06/12 12:15:45;;;;;;;19.17;5.78;;;;;;;;;;5009031;28;20164;-59
2022/06/12 12:18:15;;;;;;;15.55;6.03;;;;;;;;;;5011122;28;20017;-55
2022/06/12 12:20:43;;;;;;;15.18;4.75;;;;;;;;;;5010895;28;20018;-58
2022/06/12 12:23:16;;;;;;;14.07;4.53;;;;;;;;;;5009312;28;20030;-57
2022/06/12 12:25:46;;;;;;;14.25;4.55;;;;;;;;;;5009434;28;20069;-54
2022/06/12 12:28:18;;;;;;;13.35;4.57;;;;;;;;;;5009626;28;20053;-58
2022/06/12 12:30:45;;;;;;;10.15;3.58;;;;;;;;;;5010921;28;20026;-58
2022/06/12 12:33:15;;;;;;;14.52;4.65;;;;;;;;;;5008031;28;20145;-52
2022/06/12 12:41:15;;;;;;;8.82;3.85;;;;;;;;;;5006569;28;20153;-58
2022/06/12 12:43:48;;;;;;;10.50;4.47;;;;;;;;;;5010666;28;20025;-57
2022/06/12 12:46:14;;;;;;;9.18;3.75;;;;;;;;;;5010895;28;20042;-59
2022/06/12 12:48:41;;;;;;;8.30;3.67;;;;;;;;;;5010116;28;20026;-58
2022/06/12 12:51:07;;;;;;;8.13;3.00;;;;;;;;;;5007090;28;20022;-59
2022/06/12 12:53:35;;;;;;;13.30;3.90;;;;;;;;;;5010798;28;20030;-57
2022/06/12 12:56:09;;;;;;;10.55;3.75;;;;;;;;;;5010570;28;20020;-58
2022/06/12 12:58:38;;;;;;;7.40;3.13;;;;;;;;;;5010270;28;20044;-57
2022/06/12 13:01:19;;;;;;;7.90;3.15;;;;;;;;;;5009714;28;20438;-57
2022/06/12 13:03:48;;;;;;;6.37;3.23;;;;;;;;;;5009808;28;20030;-57
2022/06/12 13:06:26;;;;;;;8.88;2.97;;;;;;;;;;5007792;28;20271;-56
2022/06/12 13:08:59;;;;;;;6.35;2.97;;;;;;;;;;5011263;28;20037;-56
2022/06/12 13:11:28;;;;;;;6.90;3.08;;;;;;;;;;5010036;28;20042;-55
2022/06/12 13:13:54;;;;;;;6.28;2.60;;;;;;;;;;5008148;28;21199;-54
2022/06/12 13:16:38;;;;;;;7.20;2.63;;;;;;;;;;5005110;28;20102;-51
2022/06/12 13:19:16;;;;;;;8.68;3.00;;;;;;;;;;5004369;28;20076;-51
2022/06/12 13:22:01;;;;;;;7.10;2.30;;;;;;;;;;5010799;28;20052;-58
2022/06/12 13:24:29;;;;;;;6.47;2.55;;;;;;;;;;5008473;28;20053;-53
2022/06/12 13:26:56;;;;;;;5.93;2.47;;;;;;;;;;5011463;28;20029;-52
2022/06/12 13:29:23;;;;;;;7.18;2.78;;;;;;;;;;5011335;28;20038;-58
2022/06/12 13:31:56;;;;;;;5.35;2.40;;;;;;;;;;5014948;28;20033;-47
2022/06/12 13:34:23;;;;;;;5.35;2.30;;;;;;;;;;5013721;28;20105;-47
2022/06/12 13:36:49;;;;;;;5.93;2.70;;;;;;;;;;5011175;28;20079;-52
2022/06/12 13:39:20;;;;;;;5.70;2.45;;;;;;;;;;5014818;28;20069;-52
2022/06/12 13:41:49;;;;;;;5.90;3.17;;;;;;;;;;5014356;28;20042;-53
2022/06/12 13:44:21;;;;;;;3.65;2.05;;;;;;;;;;5012106;28;20022;-55
2022/06/12 13:46:47;;;;;;;6.75;2.80;;;;;;;;;;5013611;28;20049;-51
2022/06/12 13:49:22;;;;;;;6.65;2.65;;;;;;;;;;5004724;28;20030;-52
2022/06/12 13:51:55;;;;;;;4.18;2.22;;;;;;;;;;5014329;28;20021;-48
2022/06/12 13:54:22;;;;;;;8.52;2.17;;;;;;;;;;5011382;28;20026;-49
2022/06/12 13:56:50;;;;;;;4.93;2.20;;;;;;;;;;5011114;28;20510;-53
2022/06/12 13:59:24;;;;;;;4.90;3.20;;;;;;;;;;5014124;28;20025;-53
2022/06/12 14:01:51;;;;;;;5.15;2.58;;;;;;;;;;5012511;28;20503;-56
2022/06/12 14:04:22;;;;;;;5.80;2.25;;;;;;;;;;5010374;28;20037;-56
2022/06/12 14:06:48;;;;;;;4.30;2.58;;;;;;;;;;5011983;28;20116;-57
2022/06/12 14:09:25;;;;;;;5.25;2.58;;;;;;;;;;5013891;28;20022;-53
2022/06/12 14:11:52;;;;;;;3.45;1.85;;;;;;;;;;5012716;28;20142;-55
2022/06/12 14:14:24;;;;;;;4.25;2.20;;;;;;;;;;5011335;28;20467;-54
2022/06/12 14:16:52;;;;;;;4.28;2.47;;;;;;;;;;4993460;28;20027;-51
2022/06/12 14:19:25;;;;;;;3.40;1.90;;;;;;;;;;5013043;28;20452;-49
2022/06/12 14:21:58;;;;;;;6.70;2.08;;;;;;;;;;5010463;28;20038;-56
2022/06/12 14:24:26;;;;;;;4.85;2.40;;;;;;;;;;5013262;28;20040;-57
2022/06/12 14:26:52;;;;;;;4.50;2.22;;;;;;;;;;5012234;28;20137;-52
2022/06/12 14:29:37;;;;;;;7.15;2.10;;;;;;;;;;5013819;28;20033;-52
2022/06/12 14:32:12;;;;;;;5.97;2.05;;;;;;;;;;5012104;28;20057;-52
2022/06/12 14:34:39;;;;;;;8.40;2.45;;;;;;;;;;4993512;28;20059;-54
2022/06/12 14:37:05;;;;;;;4.03;2.05;;;;;;;;;;5011585;28;20498;-50
2022/06/12 14:39:33;;;;;;;3.83;2.40;;;;;;;;;;5012941;28;20434;-56
2022/06/12 14:42:05;;;;;;;3.85;2.00;;;;;;;;;;5010848;28;20543;-56
2022/06/12 14:44:31;;;;;;;3.60;1.65;;;;;;;;;;5010713;28;20155;-58
2022/06/12 14:47:07;;;;;;;3.63;2.03;;;;;;;;;;5013371;28;20499;-49
2022/06/12 14:49:33;;;;;;;3.70;2.28;;;;;;;;;;5011344;28;20494;-50
2022/06/12 14:51:59;;;;;;;5.65;2.20;;;;;;;;;;5011412;28;20033;-51
2022/06/12 14:54:25;;;;;;;3.67;2.00;;;;;;;;;;5011291;28;20033;-52
2022/06/12 14:56:51;;;;;;;3.80;1.90;;;;;;;;;;5010811;28;20499;-54
2022/06/12 14:59:19;;;;;;;3.72;2.08;;;;;;;;;;5011676;28;20044;-53
2022/06/12 15:01:46;;;;;;;3.83;2.00;;;;;;;;;;5011546;28;20077;-51
2022/06/12 15:04:12;;;;;;;2.28;1.50;;;;;;;;;;5010663;28;20018;-48
2022/06/12 15:06:38;;;;;;;3.35;1.70;;;;;;;;;;5011734;28;20332;-52
2022/06/12 15:09:05;;;;;;;4.65;1.73;;;;;;;;;;5010520;28;20032;-53
2022/06/12 15:11:31;;;;;;;4.28;1.92;;;;;;;;;;5011571;28;20029;-57
2022/06/12 15:13:57;;;;;;;2.60;2.40;;;;;;;;;;5010345;28;20026;-54
2022/06/12 15:16:28;;;;;;;3.92;2.03;;;;;;;;;;5010791;28;20494;-49